createdAt,value
2022-12-12T00:01:04.560Z,93179.97
2022-12-12T00:03:32.863Z,93178.22
2022-12-12T00:06:03.404Z,93183.97
2022-12-12T00:08:31.435Z,93190.25
2022-12-12T00:11:00.805Z,93196.00
2022-12-12T00:13:28.703Z,93202.91
2022-12-12T00:15:56.635Z,93203.09
2022-12-12T00:18:24.761Z,93208.03
2022-12-12T00:20:53.275Z,93218.00
2022-12-12T00:23:21.162Z,93203.22
2022-12-12T00:25:55.060Z,93196.94
2022-12-12T00:28:24.706Z,93215.88
2022-12-12T00:30:52.945Z,93224.72
2022-12-12T00:33:20.950Z,93221.03
2022-12-12T00:35:51.055Z,93224.38
2022-12-12T00:38:19.314Z,93215.88
2022-12-12T00:40:47.380Z,93211.84
2022-12-12T00:43:15.335Z,93209.78
2022-12-12T00:45:44.544Z,93216.69
2022-12-12T00:48:12.583Z,93217.84
2022-12-12T00:50:40.450Z,93217.19
2022-12-12T00:53:08.288Z,93224.56
2022-12-12T00:55:36.254Z,93228.13
2022-12-12T00:58:04.229Z,93229.38
2022-12-12T01:00:32.619Z,93236.94
2022-12-12T01:03:02.170Z,93239.66
2022-12-12T01:05:31.259Z,93232.94
2022-12-12T01:07:59.216Z,93235.50
2022-12-12T01:10:27.233Z,93232.94
2022-12-12T01:12:55.168Z,93222.97
2022-12-12T01:15:23.361Z,93232.28
2022-12-12T01:17:51.273Z,93225.38
2022-12-12T01:20:23.892Z,93218.50
2022-12-12T01:22:52.173Z,93208.03
2022-12-12T01:25:20.993Z,93213.34
2022-12-12T01:27:49.476Z,93216.56
2022-12-12T01:30:20.457Z,93220.41
2022-12-12T01:32:48.839Z,93227.63
2022-12-12T01:35:16.674Z,93230.19
2022-12-12T01:37:46.026Z,93219.91
2022-12-12T01:40:17.318Z,93224.09
2022-12-12T01:42:45.348Z,93237.88
2022-12-12T01:45:46.265Z,93242.50
2022-12-12T01:48:14.134Z,93245.88
2022-12-12T01:50:44.336Z,93236.09
2022-12-12T01:53:17.472Z,93242.50
2022-12-12T01:55:46.685Z,93246.69
2022-12-12T01:58:14.901Z,93235.47
2022-12-12T02:00:43.284Z,93246.19
2022-12-12T02:03:11.341Z,93247.31
2022-12-12T02:05:43.411Z,93258.19
2022-12-12T02:08:14.369Z,93267.59
2022-12-12T02:10:42.265Z,93259.75
2022-12-12T02:13:15.043Z,93264.22
2022-12-12T02:15:46.403Z,93262.13
2022-12-12T02:18:22.922Z,93263.59
2022-12-12T02:21:01.854Z,93266.09
2022-12-12T02:24:25.969Z,93253.91
2022-12-12T02:27:23.090Z,93262.06
2022-12-12T02:30:14.662Z,93259.78
2022-12-12T02:32:54.830Z,93263.78
2022-12-12T02:35:33.405Z,93256.38
2022-12-12T02:38:14.707Z,93268.25
2022-12-12T02:40:47.726Z,93256.38
2022-12-12T02:43:26.362Z,93258.59
2022-12-12T02:45:59.696Z,93255.69
2022-12-12T02:48:34.137Z,93256.13
2022-12-12T02:51:04.436Z,93261.69
2022-12-12T02:53:32.498Z,93245.69
2022-12-12T02:56:06.064Z,93248.44
2022-12-12T02:58:37.354Z,93241.31
2022-12-12T03:01:19.546Z,93245.50
2022-12-12T03:04:30.185Z,93247.75
2022-12-12T03:07:26.151Z,93250.75
2022-12-12T03:10:04.184Z,93247.72
2022-12-12T03:12:41.262Z,93253.44
2022-12-12T03:15:18.790Z,93240.16
2022-12-12T03:17:53.541Z,93246.13
2022-12-12T03:20:27.876Z,93246.97
2022-12-12T03:22:58.803Z,93247.09
2022-12-12T03:25:34.594Z,93254.28
2022-12-12T03:28:07.055Z,93257.22
2022-12-12T03:30:43.993Z,93249.06
2022-12-12T03:33:18.621Z,93256.63
2022-12-12T03:35:54.030Z,93256.34
2022-12-12T03:38:25.867Z,93267.00
2022-12-12T03:40:56.708Z,93262.97
2022-12-12T03:43:27.316Z,93272.59
2022-12-12T03:46:00.423Z,93270.91
2022-12-12T03:48:30.727Z,93262.97
2022-12-12T03:51:04.566Z,93278.88
2022-12-12T03:53:39.756Z,93282.09
2022-12-12T03:56:13.766Z,93294.53
2022-12-12T03:58:48.576Z,93293.81
2022-12-12T04:01:20.063Z,93284.53
2022-12-12T04:03:56.550Z,93286.78
2022-12-12T04:06:32.869Z,93281.66
2022-12-12T04:09:20.363Z,93288.88
2022-12-12T04:12:24.658Z,93284.75
2022-12-12T04:15:28.982Z,93301.22
2022-12-12T04:18:08.459Z,93289.13
2022-12-12T04:21:01.788Z,93297.31
2022-12-12T04:23:38.255Z,93309.66
2022-12-12T04:26:30.524Z,93314.50
2022-12-12T04:29:08.534Z,93314.53
2022-12-12T04:31:40.484Z,93322.44
2022-12-12T04:34:14.769Z,93320.53
2022-12-12T04:36:46.331Z,93317.16
2022-12-12T04:39:18.669Z,93306.09
2022-12-12T04:41:48.903Z,93316.47
2022-12-12T04:44:19.128Z,93308.19
2022-12-12T04:46:52.158Z,93303.69
2022-12-12T04:49:23.733Z,93302.91
2022-12-12T04:51:57.172Z,93310.75
2022-12-12T04:54:33.119Z,93293.69
2022-12-12T04:57:04.941Z,93303.31
2022-12-12T04:59:49.788Z,93302.03
2022-12-12T05:02:25.681Z,93303.94
2022-12-12T05:04:58.683Z,93302.03
2022-12-12T05:07:39.462Z,93320.94
2022-12-12T05:10:12.905Z,93320.84
2022-12-12T05:12:43.416Z,93319.66
2022-12-12T05:15:12.288Z,93315.41
2022-12-12T05:17:44.789Z,93312.69
2022-12-12T05:20:15.311Z,93315.22
2022-12-12T05:22:43.649Z,93321.81
2022-12-12T05:25:14.069Z,93324.09
2022-12-12T05:27:42.337Z,93325.41
2022-12-12T05:30:11.529Z,93331.22
2022-12-12T05:32:39.396Z,93323.84
2022-12-12T05:35:09.282Z,93333.03
2022-12-12T05:37:37.479Z,93337.50
2022-12-12T05:40:10.695Z,93322.63
2022-12-12T05:42:40.383Z,93328.22
2022-12-12T05:45:09.917Z,93339.41
2022-12-12T05:47:37.961Z,93321.91
2022-12-12T05:50:06.769Z,93333.50
2022-12-12T05:52:34.878Z,93336.06
2022-12-12T05:55:02.835Z,93340.50
2022-12-12T05:57:30.742Z,93339.72
2022-12-12T05:59:59.964Z,93322.41
2022-12-12T06:02:27.970Z,93337.94
2022-12-12T06:04:55.866Z,93323.53
2022-12-12T06:07:24.263Z,93346.31
2022-12-12T06:09:52.251Z,93335.09
2022-12-12T06:12:20.202Z,93323.94
2022-12-12T06:14:48.533Z,93346.75
2022-12-12T06:17:17.851Z,93346.09
2022-12-12T06:19:45.750Z,93354.19
2022-12-12T06:22:13.682Z,93353.84
2022-12-12T06:24:41.993Z,93368.09
2022-12-12T06:27:10.225Z,93365.56
2022-12-12T06:29:38.247Z,93377.09
2022-12-12T06:32:06.913Z,93366.56
2022-12-12T06:34:36.251Z,93384.53
2022-12-12T06:37:05.201Z,93379.69
2022-12-12T06:39:33.167Z,93394.19
2022-12-12T06:42:01.130Z,93395.13
2022-12-12T06:44:29.110Z,93401.22
2022-12-12T06:46:57.419Z,93392.06
2022-12-12T06:49:25.554Z,93400.59
2022-12-12T06:51:55.060Z,93406.41
2022-12-12T06:54:23.732Z,93398.38
2022-12-12T06:56:51.712Z,93389.41
2022-12-12T06:59:19.721Z,93391.63
2022-12-12T07:01:48.142Z,93399.66
2022-12-12T07:04:16.801Z,93409.31
2022-12-12T07:06:44.867Z,93410.94
2022-12-12T07:09:14.315Z,93417.19
2022-12-12T07:11:42.651Z,93420.28
2022-12-12T07:14:13.616Z,93422.06
2022-12-12T07:16:41.616Z,93424.81
2022-12-12T07:19:11.132Z,93424.34
2022-12-12T07:21:39.693Z,93423.72
2022-12-12T07:24:07.908Z,93445.22
2022-12-12T07:26:37.200Z,93448.63
2022-12-12T07:29:05.420Z,93442.03
2022-12-12T07:31:33.602Z,93443.66
2022-12-12T07:34:01.474Z,93449.63
2022-12-12T07:36:29.392Z,93464.88
2022-12-12T07:38:57.312Z,93459.22
2022-12-12T07:41:25.252Z,93484.91
2022-12-12T07:43:55.292Z,93494.41
2022-12-12T07:46:25.319Z,93496.31
2022-12-12T07:48:54.875Z,93499.19
2022-12-12T07:51:23.490Z,93492.28
2022-12-12T07:53:51.445Z,93493.63
2022-12-12T07:56:21.222Z,93504.22
2022-12-12T07:58:49.822Z,93506.00
2022-12-12T08:01:21.415Z,93516.13
2022-12-12T08:03:49.847Z,93515.00
2022-12-12T08:06:20.155Z,93517.41
2022-12-12T08:08:49.826Z,93516.31
2022-12-12T08:11:20.531Z,93529.97
2022-12-12T08:13:48.923Z,93530.81
2022-12-12T08:16:19.753Z,93540.13
2022-12-12T08:18:47.977Z,93538.97
2022-12-12T08:21:24.508Z,93538.34
2022-12-12T08:23:53.682Z,93538.38
2022-12-12T08:26:21.554Z,93545.28
2022-12-12T08:28:50.325Z,93550.91
2022-12-12T08:31:21.498Z,93549.66
2022-12-12T08:33:51.415Z,93555.63
2022-12-12T08:36:21.141Z,93547.44
2022-12-12T08:38:49.110Z,93557.88
2022-12-12T08:41:17.120Z,93558.19
2022-12-12T08:43:45.842Z,93549.84
2022-12-12T08:46:17.418Z,93558.69
2022-12-12T08:48:48.072Z,93555.97
2022-12-12T08:51:17.534Z,93551.47
2022-12-12T08:53:46.073Z,93555.34
2022-12-12T08:56:14.419Z,93556.47
2022-12-12T08:58:42.432Z,93560.63
2022-12-12T09:01:14.290Z,93549.69
2022-12-12T09:03:42.152Z,93556.28
2022-12-12T09:06:11.844Z,93561.91
2022-12-12T09:08:40.264Z,93554.53
2022-12-12T09:11:08.929Z,93545.22
2022-12-12T09:13:37.325Z,93546.00
2022-12-12T09:16:06.512Z,93536.50
2022-12-12T09:18:34.773Z,93544.41
2022-12-12T09:21:03.067Z,93551.31
2022-12-12T09:23:32.939Z,93541.66
2022-12-12T09:26:06.127Z,93545.38
2022-12-12T09:28:34.655Z,93547.63
2022-12-12T09:31:05.727Z,93537.47
2022-12-12T09:33:34.209Z,93524.78
2022-12-12T09:36:03.834Z,93519.78
2022-12-12T09:38:33.106Z,93511.25
2022-12-12T09:41:03.871Z,93515.41
2022-12-12T09:43:34.837Z,93510.38
2022-12-12T09:46:05.415Z,93506.84
2022-12-12T09:48:39.870Z,93509.72
2022-12-12T09:51:08.171Z,93511.47
2022-12-12T09:53:38.056Z,93504.72
2022-12-12T09:56:11.795Z,93493.50
2022-12-12T09:58:51.391Z,93506.81
2022-12-12T10:01:28.654Z,93510.94
2022-12-12T10:04:07.659Z,93509.31
2022-12-12T10:06:41.809Z,93502.19
2022-12-12T10:09:27.315Z,93506.84
2022-12-12T10:11:57.037Z,93496.66
2022-12-12T10:14:30.674Z,93503.56
2022-12-12T10:17:00.428Z,93505.13
2022-12-12T10:19:31.313Z,93497.97
2022-12-12T10:22:05.609Z,93497.81
2022-12-12T10:24:40.775Z,93490.00
2022-12-12T10:27:11.478Z,93494.13
2022-12-12T10:29:41.899Z,93493.28
2022-12-12T10:32:17.855Z,93485.03
2022-12-12T10:35:00.242Z,93474.34
2022-12-12T10:37:39.259Z,93465.91
2022-12-12T10:40:32.680Z,93475.06
2022-12-12T10:43:06.447Z,93455.63
2022-12-12T10:46:08.827Z,93455.38
2022-12-12T10:48:36.912Z,93460.13
2022-12-12T10:51:07.105Z,93465.78
2022-12-12T10:53:35.958Z,93477.00
2022-12-12T10:56:09.592Z,93486.31
2022-12-12T10:58:40.155Z,93473.78
2022-12-12T11:01:13.565Z,93477.56
2022-12-12T11:03:44.355Z,93483.66
2022-12-12T11:06:16.566Z,93477.41
2022-12-12T11:08:55.197Z,93477.66
2022-12-12T11:11:25.734Z,93473.50
2022-12-12T11:13:55.978Z,93459.41
2022-12-12T11:16:25.977Z,93484.88
2022-12-12T11:19:06.297Z,93472.41
2022-12-12T11:21:36.339Z,93465.28
2022-12-12T11:24:09.648Z,93467.50
2022-12-12T11:26:46.847Z,93465.31
2022-12-12T11:29:29.459Z,93454.94
2022-12-12T11:32:00.475Z,93454.59
2022-12-12T11:34:33.936Z,93442.13
2022-12-12T11:39:51.939Z,93442.19
2022-12-12T11:42:26.089Z,93443.63
2022-12-12T11:45:03.200Z,93445.16
2022-12-12T11:47:38.453Z,93455.56
2022-12-12T11:50:45.882Z,93446.47
2022-12-12T11:53:13.862Z,93435.88
2022-12-12T11:56:01.988Z,93436.75
2022-12-12T11:58:37.871Z,93432.94
2022-12-12T12:01:13.791Z,93436.88
2022-12-12T12:04:03.128Z,93432.13
2022-12-12T12:06:43.428Z,93442.91
2022-12-12T12:09:33.201Z,93446.84
2022-12-12T12:12:08.487Z,93430.91
2022-12-12T12:15:09.839Z,93432.50
2022-12-12T12:17:57.976Z,93416.28
2022-12-12T12:20:38.707Z,93418.94
2022-12-12T12:23:20.646Z,93427.06
2022-12-12T12:25:56.349Z,93425.81
2022-12-12T12:29:02.050Z,93405.31
2022-12-12T12:31:38.937Z,93397.53
2022-12-12T12:34:15.600Z,93369.56
2022-12-12T12:36:57.549Z,93387.84
2022-12-12T12:39:41.640Z,93393.97
2022-12-12T12:42:23.995Z,93398.44
2022-12-12T12:44:56.512Z,93399.81
2022-12-12T12:47:31.157Z,93403.94
2022-12-12T12:50:04.302Z,93403.41
2022-12-12T12:52:36.812Z,93393.31
2022-12-12T12:55:14.436Z,93404.94
2022-12-12T12:57:46.032Z,93408.34
2022-12-12T13:00:18.093Z,93400.41
2022-12-12T13:02:55.016Z,93388.34
2022-12-12T13:05:28.014Z,93392.72
2022-12-12T13:08:02.252Z,93399.88
2022-12-12T13:10:31.962Z,93407.75
2022-12-12T13:13:06.119Z,93403.94
2022-12-12T13:15:37.931Z,93401.88
2022-12-12T13:18:12.008Z,93422.84
2022-12-12T13:20:42.627Z,93416.41
2022-12-12T13:23:38.952Z,93399.50
2022-12-12T13:26:14.185Z,93399.28
2022-12-12T13:28:48.810Z,93411.38
2022-12-12T13:31:59.469Z,93393.22
2022-12-12T13:34:31.044Z,93381.34
2022-12-12T13:36:59.928Z,93409.63
2022-12-12T13:39:31.994Z,93405.88
2022-12-12T13:42:03.098Z,93409.63
2022-12-12T13:44:37.115Z,93405.97
2022-12-12T13:47:06.217Z,93400.44
2022-12-12T13:49:47.853Z,93408.28
2022-12-12T13:52:24.893Z,93417.19
2022-12-12T13:54:56.095Z,93421.38
2022-12-12T13:57:31.142Z,93417.19
2022-12-12T14:00:22.968Z,93423.84
2022-12-12T14:03:02.036Z,93411.38
2022-12-12T14:05:35.369Z,93400.34
2022-12-12T14:08:20.021Z,93413.63
2022-12-12T14:10:58.406Z,93406.25
2022-12-12T14:13:42.962Z,93420.22
2022-12-12T14:16:22.527Z,93416.66
2022-12-12T14:19:23.020Z,93418.06
2022-12-12T14:21:52.720Z,93429.88
2022-12-12T14:24:48.521Z,93415.63
2022-12-12T14:27:16.569Z,93414.13
2022-12-12T14:29:45.564Z,93419.38
2022-12-12T14:32:40.892Z,93402.78
2022-12-12T14:35:28.024Z,93416.84
2022-12-12T14:38:12.460Z,93403.75
2022-12-12T14:40:46.116Z,93402.31
2022-12-12T14:43:21.693Z,93412.13
2022-12-12T14:45:56.908Z,93413.53
2022-12-12T14:48:27.345Z,93397.72
2022-12-12T14:51:00.321Z,93396.03
2022-12-12T14:53:34.839Z,93393.25
2022-12-12T14:56:05.388Z,93398.00
2022-12-12T14:58:37.863Z,93391.00
2022-12-12T15:01:07.780Z,93382.75
2022-12-12T15:03:40.271Z,93391.44
2022-12-12T15:06:29.199Z,93394.72
2022-12-12T15:09:08.782Z,93392.13
2022-12-12T15:11:38.689Z,93407.03
2022-12-12T15:14:06.702Z,93397.41
2022-12-12T15:16:47.992Z,93402.91
2022-12-12T15:19:20.413Z,93393.47
2022-12-12T15:21:49.541Z,93391.09
2022-12-12T15:24:24.091Z,93410.47
2022-12-12T15:26:54.888Z,93411.69
2022-12-12T15:29:25.599Z,93407.56
2022-12-12T15:32:03.117Z,93400.41
2022-12-12T15:34:40.387Z,93390.97
2022-12-12T15:37:22.586Z,93396.28
2022-12-12T15:40:17.658Z,93396.25
2022-12-12T15:42:48.706Z,93392.31
2022-12-12T15:45:20.796Z,93395.22
2022-12-12T15:47:48.803Z,93370.97
2022-12-12T15:50:19.800Z,93381.69
2022-12-12T15:52:59.049Z,93395.38
2022-12-12T15:55:29.042Z,93400.88
2022-12-12T15:57:57.247Z,93408.41
2022-12-12T16:00:37.393Z,93424.78
2022-12-12T16:03:21.165Z,93428.13
2022-12-12T16:06:03.028Z,93427.47
2022-12-12T16:08:40.573Z,93432.78
2022-12-12T16:11:37.471Z,93446.75
2022-12-12T16:14:06.988Z,93465.03
2022-12-12T16:16:38.446Z,93461.78
2022-12-12T16:19:15.647Z,93460.91
2022-12-12T16:21:46.307Z,93475.97
2022-12-12T16:24:23.039Z,93487.91
2022-12-12T16:26:52.620Z,93480.41
2022-12-12T16:29:20.510Z,93480.56
2022-12-12T16:31:49.688Z,93495.81
2022-12-12T16:34:17.922Z,93492.34
2022-12-12T16:36:45.828Z,93494.75
2022-12-12T16:39:14.050Z,93494.84
2022-12-12T16:41:42.168Z,93505.72
2022-12-12T16:44:11.426Z,93514.50
2022-12-12T16:46:39.313Z,93516.22
2022-12-12T16:49:15.090Z,93509.16
2022-12-12T16:51:43.271Z,93513.91
2022-12-12T16:54:16.910Z,93506.38
2022-12-12T16:56:50.482Z,93521.56
2022-12-12T16:59:19.837Z,93522.19
2022-12-12T17:01:47.784Z,93536.25
2022-12-12T17:04:23.051Z,93522.56
2022-12-12T17:06:51.528Z,93539.94
2022-12-12T17:09:19.853Z,93552.78
2022-12-12T17:11:48.269Z,93544.50
2022-12-12T17:14:21.613Z,93543.63
2022-12-12T17:16:49.663Z,93553.41
2022-12-12T17:19:17.941Z,93556.56
2022-12-12T17:21:45.830Z,93555.34
2022-12-12T17:24:13.982Z,93562.03
2022-12-12T17:26:41.929Z,93584.44
2022-12-12T17:29:10.104Z,93573.28
2022-12-12T17:31:39.532Z,93592.41
2022-12-12T17:34:07.554Z,93578.84
2022-12-12T17:36:35.517Z,93557.47
2022-12-12T17:39:04.311Z,93593.94
2022-12-12T17:41:32.317Z,93585.97
2022-12-12T17:44:00.260Z,93600.63
2022-12-12T17:46:28.824Z,93607.06
2022-12-12T17:49:01.889Z,93598.31
2022-12-12T17:51:30.342Z,93615.50
2022-12-12T17:54:00.134Z,93607.31
2022-12-12T17:56:28.482Z,93600.31
2022-12-12T17:58:57.002Z,93625.72
2022-12-12T18:01:27.720Z,93623.97
2022-12-12T18:03:57.701Z,93632.69
2022-12-12T18:06:26.755Z,93637.09
2022-12-12T18:08:56.830Z,93644.34
2022-12-12T18:11:27.951Z,93642.44
2022-12-12T18:13:57.889Z,93644.31
2022-12-12T18:16:26.583Z,93664.63
2022-12-12T18:18:55.843Z,93656.53
2022-12-12T18:24:18.354Z,93659.88
2022-12-12T18:26:47.752Z,93676.16
2022-12-12T18:29:15.756Z,93676.25
2022-12-12T18:31:43.771Z,93681.06
2022-12-12T18:34:11.766Z,93685.63
2022-12-12T18:36:41.138Z,93683.91
2022-12-12T18:39:09.237Z,93680.72
2022-12-12T18:41:37.959Z,93684.06
2022-12-12T18:44:07.398Z,93676.78
2022-12-12T18:46:42.276Z,93674.91
2022-12-12T18:49:13.849Z,93667.63
2022-12-12T18:51:43.491Z,93681.78
2022-12-12T18:54:15.244Z,93693.34
2022-12-12T18:56:44.698Z,93678.53
2022-12-12T18:59:12.773Z,93677.59
2022-12-12T19:01:41.223Z,93687.53
2022-12-12T19:04:14.192Z,93683.56
2022-12-12T19:06:45.610Z,93678.19
2022-12-12T19:09:16.355Z,93677.66
2022-12-12T19:11:45.134Z,93680.66
2022-12-12T19:14:21.022Z,93679.47
2022-12-12T19:16:49.380Z,93672.22
2022-12-12T19:19:20.228Z,93676.78
2022-12-12T19:21:49.893Z,93678.31
2022-12-12T19:24:17.837Z,93676.44
2022-12-12T19:26:46.499Z,93664.84
2022-12-12T19:29:19.108Z,93667.03
2022-12-12T19:31:47.355Z,93660.81
2022-12-12T19:34:16.820Z,93646.69
2022-12-12T19:36:45.418Z,93672.13
2022-12-12T19:39:17.749Z,93662.44
2022-12-12T19:41:46.121Z,93674.16
2022-12-12T19:44:15.013Z,93667.97
2022-12-12T19:46:46.198Z,93663.53
2022-12-12T19:49:16.206Z,93662.47
2022-12-12T19:51:45.902Z,93666.91
2022-12-12T19:54:17.679Z,93653.59
2022-12-12T19:56:46.682Z,93651.97
2022-12-12T19:59:16.837Z,93649.69
2022-12-12T20:01:45.182Z,93663.31
2022-12-12T20:04:16.474Z,93672.31
2022-12-12T20:06:46.241Z,93681.28
2022-12-12T20:09:17.695Z,93686.25
2022-12-12T20:11:46.162Z,93687.75
2022-12-12T20:14:15.374Z,93688.72
2022-12-12T20:16:43.777Z,93696.38
2022-12-12T20:19:12.739Z,93702.28
2022-12-12T20:22:00.207Z,93699.84
2022-12-12T20:24:32.102Z,93714.22
2022-12-12T20:27:02.991Z,93698.47
2022-12-12T20:29:31.273Z,93707.16
2022-12-12T20:32:01.315Z,93723.81
2022-12-12T20:34:30.204Z,93737.22
2022-12-12T20:36:58.787Z,93739.78
2022-12-12T20:39:26.864Z,93759.38
2022-12-12T20:41:57.093Z,93762.81
2022-12-12T20:44:25.649Z,93742.06
2022-12-12T20:46:54.249Z,93767.78
2022-12-12T20:49:24.705Z,93750.88
2022-12-12T20:51:56.547Z,93766.41
2022-12-12T20:54:25.675Z,93776.44
2022-12-12T20:56:54.499Z,93752.44
2022-12-12T20:59:24.713Z,93775.19
2022-12-12T21:01:53.224Z,93767.22
2022-12-12T21:04:21.956Z,93767.22
2022-12-12T21:06:51.435Z,93777.56
2022-12-12T21:09:25.348Z,93770.16
2022-12-12T21:11:54.517Z,93787.31
2022-12-12T21:14:25.597Z,93784.06
2022-12-12T21:16:53.844Z,93782.66
2022-12-12T21:19:23.284Z,93785.44
2022-12-12T21:21:51.996Z,93807.63
2022-12-12T21:24:21.067Z,93794.56
2022-12-12T21:26:49.284Z,93802.28
2022-12-12T21:29:17.586Z,93808.22
2022-12-12T21:31:51.694Z,93818.44
2022-12-12T21:34:21.362Z,93827.13
2022-12-12T21:36:52.333Z,93824.69
2022-12-12T21:39:21.948Z,93836.16
2022-12-12T21:41:51.274Z,93840.69
2022-12-12T21:44:19.408Z,93837.06
2022-12-12T21:46:48.948Z,93839.63
2022-12-12T21:49:30.969Z,93832.22
2022-12-12T21:52:01.103Z,93836.03
2022-12-12T21:54:30.534Z,93841.81
2022-12-12T21:56:59.455Z,93839.16
2022-12-12T21:59:27.965Z,93843.00
2022-12-12T22:01:59.977Z,93849.22
2022-12-12T22:04:28.213Z,93857.34
2022-12-12T22:06:57.368Z,93846.59
2022-12-12T22:09:26.467Z,93851.91
2022-12-12T22:12:03.505Z,93840.19
2022-12-12T22:14:32.590Z,93859.66
2022-12-12T22:17:02.226Z,93855.72
2022-12-12T22:19:30.112Z,93852.22
2022-12-12T22:21:58.055Z,93852.34
2022-12-12T22:24:26.593Z,93847.66
2022-12-12T22:26:54.426Z,93849.94
2022-12-12T22:29:22.337Z,93864.00
2022-12-12T22:31:52.483Z,93855.06
2022-12-12T22:34:24.320Z,93861.78
2022-12-12T22:36:52.676Z,93865.81
2022-12-12T22:39:23.407Z,93867.78
2022-12-12T22:41:51.657Z,93873.84
2022-12-12T22:44:21.287Z,93871.66
2022-12-12T22:46:51.064Z,93882.78
2022-12-12T22:49:22.668Z,93888.34
2022-12-12T22:51:51.119Z,93879.53
2022-12-12T22:54:19.911Z,93888.09
2022-12-12T22:56:47.788Z,93886.50
2022-12-12T22:59:15.841Z,93898.06
2022-12-12T23:01:43.996Z,93899.25
2022-12-12T23:04:14.515Z,93898.53
2022-12-12T23:06:44.302Z,93907.69
2022-12-12T23:09:15.876Z,93899.34
2022-12-12T23:11:44.864Z,93899.13
2022-12-12T23:14:15.410Z,93907.22
2022-12-12T23:16:43.799Z,93897.28
2022-12-12T23:19:12.652Z,93912.31
2022-12-12T23:21:40.570Z,93906.50
2022-12-12T23:24:10.601Z,93904.34
2022-12-12T23:26:39.260Z,93900.50
2022-12-12T23:29:09.506Z,93901.06
2022-12-12T23:31:39.039Z,93906.28
2022-12-12T23:34:10.585Z,93902.38
2022-12-12T23:36:39.058Z,93917.53
2022-12-12T23:39:09.450Z,93907.69
2022-12-12T23:41:37.358Z,93910.81
2022-12-12T23:44:06.226Z,93927.16
2022-12-12T23:46:36.025Z,93923.56
2022-12-12T23:49:07.148Z,93932.69
2022-12-12T23:51:37.403Z,93936.28
2022-12-12T23:54:07.169Z,93952.75
2022-12-12T23:56:36.851Z,93936.19
2022-12-12T23:59:04.923Z,93939.19
